Warning: Javascript must be enabled to use all the features on this page!


Page Loading - Please Wait...

* We've detected you're using a mobile device. Find our Next Generation Station Page here.
Click to hideNews Bulletins

Peak Streamflow for the Nation

USGS 06877600 SMOKY HILL R AT ENTERPRISE, KS

Dickinson County, Kansas
Hydrologic Unit Code 10260008
Latitude  38°54'23", Longitude  97°07'03" NAD27
Drainage area 19,260  square miles
Contributing drainage area 19,260  square miles
Gage datum 1,098.25 feet above NGVD29
Output formats
Table
Graph
Tab-separated file
peakfq (watstore) format
Reselect output format
Water
Year
Date Gage
Height
(feet)
Stream-
flow
(cfs)
1903 1903-05 32.00Bd 90,0007,Bd
1908 1908-06   18,0007,Bd
1928 1928-08-10   22,800
1929 1929-07   14,400Bd
1935 1935-06-09 29.12 20,200
1936 1936-05-15 17.00 7,000
1937 1937-06-11 17.44 7,300
1938 1938-06-07 23.60 12,200
1939 1939-08-20 18.90 8,340
1940 1940-09-10 12.98 4,050
1941 1941-06-19 27.45 16,400
1942 1941-10-20 30.20 37,800
1943 1943-06-17 25.07 13,500
1944 1944-05-10 27.68 17,800
1945 1945-07-18 29.76 30,400
1946 1946-09-13   21,600
1947 1946-10-12   16,100
1948 1948-07-21   29,4006
1949 1949-06-14   17,6006
1950 1950-07-22   22,7006
1951 1951-07-14 33.96 233,0006
1952 1952-04-22 22.73 12,2006
1953 1953-05-28 21.41 12,6006
1954 1954-06-02   10,6006
1955 1955-06-24   8,9506
1956 1956-07-10   4,5506
1957 1957-06-28   15,6006
1958 1958-05-23   13,0006
1959 1959-05-17   9,7506
1960 1960-04-02   32,0006
1961 1961-05-23   26,5006
1962 1962-09-22 18.74 15,2006
1963 1963-07-12 14.60 10,6006
1964 1963-10-22 7.72 3,1506
1965 1965-06-27 21.08 18,6006
1966 1966-08-22 11.36 7,5606
1967 1967-09-21 23.24 23,2006
1968 1968-06-13 7.89 3,7606
1969 1969-05-26 14.96 10,3006
1970 1970-06-20 9.75 5,5206
1971 1971-05-23 22.492 20,3006
1972 1972-07-18 13.70 8,3506
1973 1973-09-30 26.45 43,0006
1974 1973-10-13 26.82 47,1006
1975 1975-06-25 18.77 14,8006
1976 1976-04-21 13.71 9,4106
1977 1977-05-31 17.34 13,4006
1978 1978-03-11 10.39 6,3506
1979 1979-03-24 20.74 17,1006
1980 1979-10-31 22.74 21,4006
1981 1981-06-13 13.70 9,4006
1982 1982-07-09 18.15 14,0006
1983 1983-04-07 10.34 6,4106
1984 1984-05-02 17.29 13,0006
1985 1985-06-05 13.45 9,3506
1986 1985-10-11 20.01 17,0006
1987 1987-03-30 22.22 20,6006
1988 1988-02-18 4.61 1,2106
1989 1989-09-09 10.17 5,5406
1990 1990-08-16 13.05 7,1406
1991 1991-06-05 11.04 6,0706
1992 1992-07-26 24.82 13,6006
1993 1993-07-22 33.95 47,6006
1994 1993-10-01 19.23 8,2606
1995 1995-05-30 30.26 24,8006
1996 1996-06-02 26.28 18,1006
1997 1996-11-17 19.94 10,1006
1998 1998-04-01 25.50 15,4006
1999 1998-11-04 28.99 26,3006
2000 2000-03-26 22.71 12,4006
2001 2001-02-25 20.21 11,3006
2002 2002-04-23 9.80 1,7006
2003 2003-09-16 18.63 8,5206
2004 2004-03-06 16.35 6,4906
2005 2005-06-04 24.33 15,2006
2006 2006-06-24 10.61 2,5706
2007 2007-05-26 29.91 28,6006
2008 2008-09-15 16.88 7,1406
2009 2009-04-29 21.63 11,9006
2010 2010-06-16 19.18 9,6506
2011 2011-06-08 23.37 13,8006
2012 2012-04-16 13.79 4,6606
2013 2013-08-02 27.64 21,3006
2014 2014-06-12 21.29 11,1006
2015 2015-05-28 18.72 8,3806
2016 2016-05-29 26.95 16,6006
2017 2017-05-22 23.70 12,6006
2018 2018-09-06 17.24 6,8106
2019 2019-07-06 30.98 30,7006
2020 2020-05-27 23.41 12,1006
2021 2021-05-17 23.26 12,0006
?
  Peak Gage-Height Qualification Codes.
?
  Peak Streamflow Qualification Codes.